sensor_id;sensor_type;location;lat;lon;timestamp;P1;durP1;ratioP1;P2;durP2;ratioP2
1569;SDS011;778;50.120;8.698;2023-04-25T00:01:18;6.23;;;5.70;;
1569;SDS011;778;50.120;8.698;2023-04-25T00:03:49;8.23;;;7.37;;
1569;SDS011;778;50.120;8.698;2023-04-25T00:06:18;7.80;;;7.10;;
1569;SDS011;778;50.120;8.698;2023-04-25T00:08:47;7.17;;;6.57;;
1569;SDS011;778;50.120;8.698;2023-04-25T00:11:16;7.70;;;7.00;;
1569;SDS011;778;50.120;8.698;2023-04-25T00:13:44;7.27;;;6.57;;
1569;SDS011;778;50.120;8.698;2023-04-25T00:16:13;7.30;;;6.63;;
1569;SDS011;778;50.120;8.698;2023-04-25T00:18:42;6.20;;;5.67;;
1569;SDS011;778;50.120;8.698;2023-04-25T00:21:14;6.40;;;5.77;;
1569;SDS011;778;50.120;8.698;2023-04-25T00:23:44;7.20;;;5.80;;
1569;SDS011;778;50.120;8.698;2023-04-25T00:26:13;6.30;;;5.70;;
1569;SDS011;778;50.120;8.698;2023-04-25T00:28:41;7.23;;;6.50;;
1569;SDS011;778;50.120;8.698;2023-04-25T00:31:10;6.50;;;5.70;;
1569;SDS011;778;50.120;8.698;2023-04-25T00:33:38;5.60;;;5.10;;
1569;SDS011;778;50.120;8.698;2023-04-25T00:36:07;7.30;;;6.20;;
1569;SDS011;778;50.120;8.698;2023-04-25T00:38:37;6.07;;;5.57;;
1569;SDS011;778;50.120;8.698;2023-04-25T00:41:06;7.53;;;6.60;;
1569;SDS011;778;50.120;8.698;2023-04-25T00:43:36;6.93;;;6.33;;
1569;SDS011;778;50.120;8.698;2023-04-25T00:46:05;7.30;;;6.70;;
1569;SDS011;778;50.120;8.698;2023-04-25T00:48:33;7.93;;;7.20;;
1569;SDS011;778;50.120;8.698;2023-04-25T00:51:02;8.73;;;7.43;;
1569;SDS011;778;50.120;8.698;2023-04-25T00:53:31;7.50;;;6.80;;
1569;SDS011;778;50.120;8.698;2023-04-25T00:56:02;7.60;;;6.90;;
1569;SDS011;778;50.120;8.698;2023-04-25T00:58:31;8.30;;;7.50;;
1569;SDS011;778;50.120;8.698;2023-04-25T01:00:59;8.67;;;7.87;;
1569;SDS011;778;50.120;8.698;2023-04-25T01:03:29;7.43;;;6.80;;
1569;SDS011;778;50.120;8.698;2023-04-25T01:06:02;7.43;;;6.63;;
1569;SDS011;778;50.120;8.698;2023-04-25T01:08:30;7.10;;;6.40;;
1569;SDS011;778;50.120;8.698;2023-04-25T01:11:00;7.37;;;6.67;;
1569;SDS011;778;50.120;8.698;2023-04-25T01:13:29;8.00;;;7.20;;
1569;SDS011;778;50.120;8.698;2023-04-25T01:15:58;6.90;;;6.07;;
1569;SDS011;778;50.120;8.698;2023-04-25T01:18:27;7.13;;;6.53;;
1569;SDS011;778;50.120;8.698;2023-04-25T01:20:56;7.70;;;6.80;;
1569;SDS011;778;50.120;8.698;2023-04-25T01:23:34;7.27;;;6.57;;
1569;SDS011;778;50.120;8.698;2023-04-25T01:26:03;6.80;;;6.20;;
1569;SDS011;778;50.120;8.698;2023-04-25T01:28:32;7.93;;;6.30;;
1569;SDS011;778;50.120;8.698;2023-04-25T01:31:02;6.50;;;5.90;;
1569;SDS011;778;50.120;8.698;2023-04-25T01:33:30;6.80;;;6.10;;
1569;SDS011;778;50.120;8.698;2023-04-25T01:35:59;7.10;;;6.40;;
1569;SDS011;778;50.120;8.698;2023-04-25T01:38:29;6.70;;;6.00;;
1569;SDS011;778;50.120;8.698;2023-04-25T01:40:59;7.83;;;6.90;;
1569;SDS011;778;50.120;8.698;2023-04-25T01:43:28;6.97;;;6.37;;
1569;SDS011;778;50.120;8.698;2023-04-25T01:45:56;8.80;;;6.80;;
1569;SDS011;778;50.120;8.698;2023-04-25T01:48:25;7.73;;;6.53;;
1569;SDS011;778;50.120;8.698;2023-04-25T01:50:53;6.93;;;5.50;;
1569;SDS011;778;50.120;8.698;2023-04-25T01:53:23;8.07;;;5.67;;
1569;SDS011;778;50.120;8.698;2023-04-25T01:55:52;6.43;;;5.87;;
1569;SDS011;778;50.120;8.698;2023-04-25T01:58:23;7.53;;;6.60;;
1569;SDS011;778;50.120;8.698;2023-04-25T02:01:09;6.20;;;5.27;;
1569;SDS011;778;50.120;8.698;2023-04-25T02:03:44;6.07;;;5.47;;
1569;SDS011;778;50.120;8.698;2023-04-25T02:06:27;6.93;;;6.33;;
1569;SDS011;778;50.120;8.698;2023-04-25T02:08:58;6.53;;;5.60;;
1569;SDS011;778;50.120;8.698;2023-04-25T02:11:27;6.83;;;6.23;;
1569;SDS011;778;50.120;8.698;2023-04-25T02:14:14;8.97;;;5.70;;
1569;SDS011;778;50.120;8.698;2023-04-25T02:16:52;7.20;;;5.70;;
1569;SDS011;778;50.120;8.698;2023-04-25T02:19:22;6.07;;;5.47;;
1569;SDS011;778;50.120;8.698;2023-04-25T02:21:51;7.00;;;6.40;;
1569;SDS011;778;50.120;8.698;2023-04-25T02:24:23;6.67;;;5.33;;
1569;SDS011;778;50.120;8.698;2023-04-25T02:26:55;6.83;;;6.13;;
1569;SDS011;778;50.120;8.698;2023-04-25T02:29:24;7.53;;;6.83;;
1569;SDS011;778;50.120;8.698;2023-04-25T02:31:53;6.93;;;6.10;;
1569;SDS011;778;50.120;8.698;2023-04-25T02:34:23;8.97;;;6.87;;
1569;SDS011;778;50.120;8.698;2023-04-25T02:36:52;6.97;;;6.20;;
1569;SDS011;778;50.120;8.698;2023-04-25T02:39:23;7.70;;;6.90;;
1569;SDS011;778;50.120;8.698;2023-04-25T02:41:55;7.40;;;6.70;;
1569;SDS011;778;50.120;8.698;2023-04-25T02:44:24;9.50;;;7.33;;
1569;SDS011;778;50.120;8.698;2023-04-25T02:46:53;7.80;;;6.70;;
1569;SDS011;778;50.120;8.698;2023-04-25T02:49:24;9.63;;;7.90;;
1569;SDS011;778;50.120;8.698;2023-04-25T02:51:54;9.67;;;7.30;;
1569;SDS011;778;50.120;8.698;2023-04-25T02:54:24;7.40;;;6.70;;
1569;SDS011;778;50.120;8.698;2023-04-25T02:56:55;11.70;;;7.90;;
1569;SDS011;778;50.120;8.698;2023-04-25T02:59:28;8.20;;;7.37;;
1569;SDS011;778;50.120;8.698;2023-04-25T03:02:00;8.83;;;8.03;;
1569;SDS011;778;50.120;8.698;2023-04-25T03:04:36;9.20;;;8.07;;
1569;SDS011;778;50.120;8.698;2023-04-25T03:07:05;9.30;;;7.80;;
1569;SDS011;778;50.120;8.698;2023-04-25T03:09:40;12.17;;;7.37;;
1569;SDS011;778;50.120;8.698;2023-04-25T03:12:11;9.50;;;8.60;;
1569;SDS011;778;50.120;8.698;2023-04-25T03:14:40;10.23;;;7.37;;
1569;SDS011;778;50.120;8.698;2023-04-25T03:17:08;8.97;;;7.50;;
1569;SDS011;778;50.120;8.698;2023-04-25T03:19:37;10.43;;;8.70;;
1569;SDS011;778;50.120;8.698;2023-04-25T03:22:05;12.23;;;10.13;;
1569;SDS011;778;50.120;8.698;2023-04-25T03:24:38;9.23;;;8.33;;
1569;SDS011;778;50.120;8.698;2023-04-25T03:27:11;9.70;;;8.70;;
1569;SDS011;778;50.120;8.698;2023-04-25T03:29:44;9.70;;;8.67;;
1569;SDS011;778;50.120;8.698;2023-04-25T03:32:16;10.80;;;9.23;;
1569;SDS011;778;50.120;8.698;2023-04-25T03:34:47;8.73;;;7.70;;
1569;SDS011;778;50.120;8.698;2023-04-25T03:37:18;10.73;;;9.40;;
1569;SDS011;778;50.120;8.698;2023-04-25T03:39:53;9.80;;;8.80;;
1569;SDS011;778;50.120;8.698;2023-04-25T03:42:28;11.07;;;7.80;;
1569;SDS011;778;50.120;8.698;2023-04-25T03:45:04;9.90;;;8.80;;
1569;SDS011;778;50.120;8.698;2023-04-25T03:47:38;9.27;;;8.40;;
1569;SDS011;778;50.120;8.698;2023-04-25T03:50:12;10.60;;;9.40;;
1569;SDS011;778;50.120;8.698;2023-04-25T03:52:42;9.90;;;8.90;;
1569;SDS011;778;50.120;8.698;2023-04-25T03:55:16;10.47;;;9.47;;
1569;SDS011;778;50.120;8.698;2023-04-25T03:57:45;16.23;;;9.37;;
1569;SDS011;778;50.120;8.698;2023-04-25T04:00:17;11.53;;;9.47;;
1569;SDS011;778;50.120;8.698;2023-04-25T04:02:51;11.07;;;9.97;;
1569;SDS011;778;50.120;8.698;2023-04-25T04:05:20;11.13;;;10.03;;
1569;SDS011;778;50.120;8.698;2023-04-25T04:07:54;12.83;;;10.40;;
1569;SDS011;778;50.120;8.698;2023-04-25T04:10:26;13.70;;;9.00;;
1569;SDS011;778;50.120;8.698;2023-04-25T04:12:58;14.13;;;9.97;;
1569;SDS011;778;50.120;8.698;2023-04-25T04:15:29;12.27;;;9.80;;
1569;SDS011;778;50.120;8.698;2023-04-25T04:18:00;12.27;;;9.60;;
1569;SDS011;778;50.120;8.698;2023-04-25T04:20:30;11.87;;;9.67;;
1569;SDS011;778;50.120;8.698;2023-04-25T04:23:00;13.00;;;10.90;;
1569;SDS011;778;50.120;8.698;2023-04-25T04:25:32;12.20;;;9.93;;
1569;SDS011;778;50.120;8.698;2023-04-25T04:28:28;12.03;;;10.83;;
1569;SDS011;778;50.120;8.698;2023-04-25T04:31:10;11.90;;;10.70;;
1569;SDS011;778;50.120;8.698;2023-04-25T04:33:41;11.70;;;10.50;;
1569;SDS011;778;50.120;8.698;2023-04-25T04:36:14;16.07;;;10.90;;
1569;SDS011;778;50.120;8.698;2023-04-25T04:38:47;11.50;;;9.40;;
1569;SDS011;778;50.120;8.698;2023-04-25T04:41:32;10.77;;;9.50;;
1569;SDS011;778;50.120;8.698;2023-04-25T04:44:22;11.70;;;8.27;;
1569;SDS011;778;50.120;8.698;2023-04-25T04:47:15;10.97;;;7.50;;
1569;SDS011;778;50.120;8.698;2023-04-25T04:50:03;11.67;;;7.50;;
1569;SDS011;778;50.120;8.698;2023-04-25T04:53:11;12.57;;;7.43;;
1569;SDS011;778;50.120;8.698;2023-04-25T04:56:04;10.63;;;6.87;;
1569;SDS011;778;50.120;8.698;2023-04-25T04:59:13;15.17;;;8.27;;
1569;SDS011;778;50.120;8.698;2023-04-25T05:02:05;16.40;;;8.10;;
1569;SDS011;778;50.120;8.698;2023-04-25T05:04:55;10.27;;;7.40;;
1569;SDS011;778;50.120;8.698;2023-04-25T05:07:48;9.97;;;7.17;;
1569;SDS011;778;50.120;8.698;2023-04-25T05:10:38;9.50;;;6.20;;
1569;SDS011;778;50.120;8.698;2023-04-25T05:13:29;7.60;;;6.80;;
1569;SDS011;778;50.120;8.698;2023-04-25T05:16:25;13.13;;;6.73;;
1569;SDS011;778;50.120;8.698;2023-04-25T05:19:05;9.30;;;7.23;;
1569;SDS011;778;50.120;8.698;2023-04-25T05:21:44;13.40;;;6.50;;
1569;SDS011;778;50.120;8.698;2023-04-25T05:24:30;14.20;;;6.60;;
1569;SDS011;778;50.120;8.698;2023-04-25T05:27:13;10.70;;;7.23;;
1569;SDS011;778;50.120;8.698;2023-04-25T05:30:15;10.50;;;6.07;;
1569;SDS011;778;50.120;8.698;2023-04-25T05:33:26;7.83;;;6.00;;
1569;SDS011;778;50.120;8.698;2023-04-25T05:35:56;9.53;;;5.90;;
1569;SDS011;778;50.120;8.698;2023-04-25T05:38:26;11.77;;;8.33;;
1569;SDS011;778;50.120;8.698;2023-04-25T05:41:13;9.03;;;6.57;;
1569;SDS011;778;50.120;8.698;2023-04-25T05:43:55;9.73;;;5.87;;
1569;SDS011;778;50.120;8.698;2023-04-25T05:46:49;11.77;;;6.13;;
1569;SDS011;778;50.120;8.698;2023-04-25T05:49:32;8.90;;;5.03;;
1569;SDS011;778;50.120;8.698;2023-04-25T05:52:25;7.10;;;4.63;;
1569;SDS011;778;50.120;8.698;2023-04-25T05:55:11;7.07;;;5.70;;
1569;SDS011;778;50.120;8.698;2023-04-25T05:57:41;12.90;;;5.40;;
1569;SDS011;778;50.120;8.698;2023-04-25T06:00:16;6.63;;;5.37;;
1569;SDS011;778;50.120;8.698;2023-04-25T06:02:49;11.47;;;5.93;;
1569;SDS011;778;50.120;8.698;2023-04-25T06:05:21;8.27;;;4.50;;
1569;SDS011;778;50.120;8.698;2023-04-25T06:07:51;8.00;;;5.63;;
1569;SDS011;778;50.120;8.698;2023-04-25T06:10:21;9.20;;;5.50;;
1569;SDS011;778;50.120;8.698;2023-04-25T06:12:55;7.07;;;5.37;;
1569;SDS011;778;50.120;8.698;2023-04-25T06:15:25;7.77;;;5.20;;
1569;SDS011;778;50.120;8.698;2023-04-25T06:17:55;12.37;;;5.13;;
1569;SDS011;778;50.120;8.698;2023-04-25T06:20:31;5.33;;;4.77;;
1569;SDS011;778;50.120;8.698;2023-04-25T06:23:00;6.80;;;5.03;;
1569;SDS011;778;50.120;8.698;2023-04-25T06:25:40;6.30;;;4.77;;
1569;SDS011;778;50.120;8.698;2023-04-25T06:28:09;11.73;;;7.40;;
1569;SDS011;778;50.120;8.698;2023-04-25T06:30:37;7.27;;;5.90;;
1569;SDS011;778;50.120;8.698;2023-04-25T06:33:10;10.87;;;5.73;;
1569;SDS011;778;50.120;8.698;2023-04-25T06:35:41;10.20;;;6.67;;
1569;SDS011;778;50.120;8.698;2023-04-25T06:38:12;8.67;;;5.57;;
1569;SDS011;778;50.120;8.698;2023-04-25T06:40:44;4.53;;;4.13;;
1569;SDS011;778;50.120;8.698;2023-04-25T06:43:13;9.33;;;3.93;;
1569;SDS011;778;50.120;8.698;2023-04-25T06:45:54;11.83;;;4.93;;
1569;SDS011;778;50.120;8.698;2023-04-25T06:48:26;8.40;;;6.00;;
1569;SDS011;778;50.120;8.698;2023-04-25T06:50:56;7.37;;;4.50;;
1569;SDS011;778;50.120;8.698;2023-04-25T06:53:25;9.03;;;4.33;;
1569;SDS011;778;50.120;8.698;2023-04-25T06:55:58;7.90;;;4.93;;
1569;SDS011;778;50.120;8.698;2023-04-25T06:58:36;6.57;;;4.87;;
1569;SDS011;778;50.120;8.698;2023-04-25T07:01:29;6.17;;;4.53;;
1569;SDS011;778;50.120;8.698;2023-04-25T07:04:00;10.07;;;5.03;;
1569;SDS011;778;50.120;8.698;2023-04-25T07:06:32;7.70;;;4.67;;
1569;SDS011;778;50.120;8.698;2023-04-25T07:09:04;7.07;;;4.53;;
1569;SDS011;778;50.120;8.698;2023-04-25T07:11:33;5.37;;;4.03;;
1569;SDS011;778;50.120;8.698;2023-04-25T07:14:02;7.20;;;4.00;;
1569;SDS011;778;50.120;8.698;2023-04-25T07:16:31;5.97;;;4.10;;
1569;SDS011;778;50.120;8.698;2023-04-25T07:19:01;6.37;;;3.93;;
1569;SDS011;778;50.120;8.698;2023-04-25T07:21:29;9.00;;;5.00;;
1569;SDS011;778;50.120;8.698;2023-04-25T07:24:03;7.00;;;4.37;;
1569;SDS011;778;50.120;8.698;2023-04-25T07:26:35;6.80;;;4.50;;
1569;SDS011;778;50.120;8.698;2023-04-25T07:29:20;13.57;;;4.80;;
1569;SDS011;778;50.120;8.698;2023-04-25T07:31:49;6.90;;;4.17;;
1569;SDS011;778;50.120;8.698;2023-04-25T07:34:19;6.70;;;4.60;;
1569;SDS011;778;50.120;8.698;2023-04-25T07:36:48;4.90;;;4.17;;
1569;SDS011;778;50.120;8.698;2023-04-25T07:39:19;6.50;;;4.07;;
1569;SDS011;778;50.120;8.698;2023-04-25T07:41:47;4.43;;;4.03;;
1569;SDS011;778;50.120;8.698;2023-04-25T07:44:23;6.70;;;3.70;;
1569;SDS011;778;50.120;8.698;2023-04-25T07:46:52;6.53;;;4.67;;
1569;SDS011;778;50.120;8.698;2023-04-25T07:49:23;4.43;;;3.97;;
1569;SDS011;778;50.120;8.698;2023-04-25T07:51:51;5.00;;;4.23;;
1569;SDS011;778;50.120;8.698;2023-04-25T07:54:21;4.33;;;3.63;;
1569;SDS011;778;50.120;8.698;2023-04-25T07:56:56;8.17;;;3.40;;
1569;SDS011;778;50.120;8.698;2023-04-25T07:59:28;4.37;;;3.13;;
1569;SDS011;778;50.120;8.698;2023-04-25T08:01:59;3.80;;;3.40;;
1569;SDS011;778;50.120;8.698;2023-04-25T08:04:29;4.63;;;3.10;;
1569;SDS011;778;50.120;8.698;2023-04-25T08:07:02;4.17;;;2.70;;
1569;SDS011;778;50.120;8.698;2023-04-25T08:09:39;3.43;;;2.90;;
1569;SDS011;778;50.120;8.698;2023-04-25T08:12:14;9.20;;;4.90;;
1569;SDS011;778;50.120;8.698;2023-04-25T08:14:42;5.40;;;3.87;;
1569;SDS011;778;50.120;8.698;2023-04-25T08:17:11;9.70;;;4.73;;
1569;SDS011;778;50.120;8.698;2023-04-25T08:19:40;6.30;;;4.47;;
1569;SDS011;778;50.120;8.698;2023-04-25T08:22:17;5.97;;;4.30;;
1569;SDS011;778;50.120;8.698;2023-04-25T08:24:53;5.77;;;3.50;;
1569;SDS011;778;50.120;8.698;2023-04-25T08:27:21;8.27;;;3.50;;
1569;SDS011;778;50.120;8.698;2023-04-25T08:29:50;4.73;;;3.80;;
1569;SDS011;778;50.120;8.698;2023-04-25T08:32:19;6.80;;;4.00;;
1569;SDS011;778;50.120;8.698;2023-04-25T08:35:07;4.47;;;3.40;;
1569;SDS011;778;50.120;8.698;2023-04-25T08:37:36;4.40;;;3.73;;
1569;SDS011;778;50.120;8.698;2023-04-25T08:40:14;5.07;;;4.20;;
1569;SDS011;778;50.120;8.698;2023-04-25T08:42:54;8.70;;;4.10;;
1569;SDS011;778;50.120;8.698;2023-04-25T08:45:25;6.43;;;4.50;;
1569;SDS011;778;50.120;8.698;2023-04-25T08:47:54;6.10;;;4.57;;
1569;SDS011;778;50.120;8.698;2023-04-25T08:50:25;4.77;;;4.27;;
1569;SDS011;778;50.120;8.698;2023-04-25T08:52:56;5.27;;;4.57;;
1569;SDS011;778;50.120;8.698;2023-04-25T08:55:32;6.40;;;5.10;;
1569;SDS011;778;50.120;8.698;2023-04-25T08:58:01;7.87;;;5.33;;
1569;SDS011;778;50.120;8.698;2023-04-25T09:00:30;5.77;;;3.93;;
1569;SDS011;778;50.120;8.698;2023-04-25T09:02:58;5.00;;;3.57;;
1569;SDS011;778;50.120;8.698;2023-04-25T09:05:31;5.03;;;4.30;;
1569;SDS011;778;50.120;8.698;2023-04-25T09:08:00;4.63;;;4.10;;
1569;SDS011;778;50.120;8.698;2023-04-25T09:10:29;6.43;;;4.70;;
1569;SDS011;778;50.120;8.698;2023-04-25T09:13:03;4.47;;;4.10;;
1569;SDS011;778;50.120;8.698;2023-04-25T09:15:49;5.60;;;4.00;;
1569;SDS011;778;50.120;8.698;2023-04-25T09:18:55;7.63;;;4.60;;
1569;SDS011;778;50.120;8.698;2023-04-25T09:21:24;5.37;;;4.63;;
1569;SDS011;778;50.120;8.698;2023-04-25T09:23:54;7.60;;;5.43;;
1569;SDS011;778;50.120;8.698;2023-04-25T09:26:26;6.23;;;4.73;;
1569;SDS011;778;50.120;8.698;2023-04-25T09:29:04;5.87;;;5.30;;
1569;SDS011;778;50.120;8.698;2023-04-25T09:31:37;4.73;;;4.30;;
1569;SDS011;778;50.120;8.698;2023-04-25T09:34:07;5.47;;;4.97;;
1569;SDS011;778;50.120;8.698;2023-04-25T09:36:46;5.60;;;4.07;;
1569;SDS011;778;50.120;8.698;2023-04-25T09:39:33;5.47;;;4.70;;
1569;SDS011;778;50.120;8.698;2023-04-25T09:42:11;6.73;;;4.90;;
1569;SDS011;778;50.120;8.698;2023-04-25T09:44:41;7.13;;;4.10;;
1569;SDS011;778;50.120;8.698;2023-04-25T09:47:13;4.63;;;4.10;;
1569;SDS011;778;50.120;8.698;2023-04-25T09:49:44;8.80;;;5.30;;
1569;SDS011;778;50.120;8.698;2023-04-25T09:52:14;6.70;;;4.70;;
1569;SDS011;778;50.120;8.698;2023-04-25T09:54:53;4.37;;;3.80;;
1569;SDS011;778;50.120;8.698;2023-04-25T09:57:30;4.50;;;4.07;;
1569;SDS011;778;50.120;8.698;2023-04-25T09:59:58;4.60;;;4.20;;
1569;SDS011;778;50.120;8.698;2023-04-25T10:02:41;7.27;;;4.90;;
1569;SDS011;778;50.120;8.698;2023-04-25T10:05:20;4.97;;;4.40;;
1569;SDS011;778;50.120;8.698;2023-04-25T10:07:52;6.00;;;4.47;;
1569;SDS011;778;50.120;8.698;2023-04-25T10:10:21;6.07;;;4.53;;
1569;SDS011;778;50.120;8.698;2023-04-25T10:12:53;4.77;;;4.27;;
1569;SDS011;778;50.120;8.698;2023-04-25T10:15:22;5.53;;;4.27;;
1569;SDS011;778;50.120;8.698;2023-04-25T10:17:51;8.27;;;4.93;;
1569;SDS011;778;50.120;8.698;2023-04-25T10:20:20;5.67;;;5.00;;
1569;SDS011;778;50.120;8.698;2023-04-25T10:22:49;5.80;;;4.37;;
1569;SDS011;778;50.120;8.698;2023-04-25T10:25:22;4.60;;;4.10;;
1569;SDS011;778;50.120;8.698;2023-04-25T10:27:52;5.70;;;4.10;;
1569;SDS011;778;50.120;8.698;2023-04-25T10:30:22;6.00;;;4.27;;
1569;SDS011;778;50.120;8.698;2023-04-25T10:32:51;6.03;;;4.57;;
1569;SDS011;778;50.120;8.698;2023-04-25T10:35:24;7.27;;;5.30;;
1569;SDS011;778;50.120;8.698;2023-04-25T10:38:02;8.30;;;5.10;;
1569;SDS011;778;50.120;8.698;2023-04-25T10:40:33;7.23;;;5.37;;
1569;SDS011;778;50.120;8.698;2023-04-25T10:46:14;6.97;;;5.03;;
1569;SDS011;778;50.120;8.698;2023-04-25T10:48:46;5.40;;;4.90;;
1569;SDS011;778;50.120;8.698;2023-04-25T10:51:16;6.17;;;5.33;;
1569;SDS011;778;50.120;8.698;2023-04-25T10:53:57;7.50;;;4.67;;
1569;SDS011;778;50.120;8.698;2023-04-25T10:56:27;8.10;;;5.50;;
1569;SDS011;778;50.120;8.698;2023-04-25T10:59:08;7.47;;;5.20;;
1569;SDS011;778;50.120;8.698;2023-04-25T11:01:39;8.07;;;4.83;;
1569;SDS011;778;50.120;8.698;2023-04-25T11:04:19;5.60;;;5.07;;
1569;SDS011;778;50.120;8.698;2023-04-25T11:06:58;7.07;;;4.37;;
1569;SDS011;778;50.120;8.698;2023-04-25T11:09:49;7.43;;;4.77;;
1569;SDS011;778;50.120;8.698;2023-04-25T11:12:17;4.17;;;3.80;;
1569;SDS011;778;50.120;8.698;2023-04-25T11:14:47;5.47;;;4.60;;
1569;SDS011;778;50.120;8.698;2023-04-25T11:17:15;8.10;;;5.00;;
1569;SDS011;778;50.120;8.698;2023-04-25T11:19:44;7.80;;;4.63;;
1569;SDS011;778;50.120;8.698;2023-04-25T11:22:16;6.30;;;4.97;;
1569;SDS011;778;50.120;8.698;2023-04-25T11:24:45;6.30;;;4.20;;
1569;SDS011;778;50.120;8.698;2023-04-25T11:27:13;7.17;;;4.93;;
1569;SDS011;778;50.120;8.698;2023-04-25T11:29:42;6.53;;;3.97;;
1569;SDS011;778;50.120;8.698;2023-04-25T11:32:12;4.10;;;3.60;;
1569;SDS011;778;50.120;8.698;2023-04-25T11:34:42;8.93;;;4.57;;
1569;SDS011;778;50.120;8.698;2023-04-25T11:37:12;8.63;;;4.67;;
1569;SDS011;778;50.120;8.698;2023-04-25T11:39:44;5.57;;;4.50;;
1569;SDS011;778;50.120;8.698;2023-04-25T11:42:13;4.93;;;3.97;;
1569;SDS011;778;50.120;8.698;2023-04-25T11:44:42;4.43;;;3.83;;
1569;SDS011;778;50.120;8.698;2023-04-25T11:47:12;5.77;;;3.70;;
1569;SDS011;778;50.120;8.698;2023-04-25T11:49:41;3.77;;;3.30;;
1569;SDS011;778;50.120;8.698;2023-04-25T11:52:09;8.03;;;3.20;;
1569;SDS011;778;50.120;8.698;2023-04-25T11:54:38;3.67;;;3.33;;
1569;SDS011;778;50.120;8.698;2023-04-25T11:57:07;5.83;;;3.50;;
1569;SDS011;778;50.120;8.698;2023-04-25T11:59:35;5.60;;;3.93;;
1569;SDS011;778;50.120;8.698;2023-04-25T12:02:04;6.57;;;3.80;;
1569;SDS011;778;50.120;8.698;2023-04-25T12:04:34;4.43;;;4.03;;
1569;SDS011;778;50.120;8.698;2023-04-25T12:07:03;5.00;;;3.63;;
1569;SDS011;778;50.120;8.698;2023-04-25T12:09:32;7.03;;;3.37;;
1569;SDS011;778;50.120;8.698;2023-04-25T12:12:01;7.33;;;3.50;;
1569;SDS011;778;50.120;8.698;2023-04-25T12:14:30;7.33;;;3.40;;
1569;SDS011;778;50.120;8.698;2023-04-25T12:17:01;4.67;;;3.57;;
1569;SDS011;778;50.120;8.698;2023-04-25T12:19:36;5.37;;;3.57;;
1569;SDS011;778;50.120;8.698;2023-04-25T12:22:18;5.80;;;3.80;;
1569;SDS011;778;50.120;8.698;2023-04-25T12:24:48;5.50;;;4.23;;
1569;SDS011;778;50.120;8.698;2023-04-25T12:27:17;4.47;;;3.30;;
1569;SDS011;778;50.120;8.698;2023-04-25T12:29:52;6.10;;;3.50;;
1569;SDS011;778;50.120;8.698;2023-04-25T12:32:22;6.70;;;3.93;;
1569;SDS011;778;50.120;8.698;2023-04-25T12:34:53;5.90;;;4.00;;
1569;SDS011;778;50.120;8.698;2023-04-25T12:37:22;6.13;;;3.70;;
1569;SDS011;778;50.120;8.698;2023-04-25T12:39:50;4.17;;;3.37;;
1569;SDS011;778;50.120;8.698;2023-04-25T12:42:18;8.00;;;3.70;;
1569;SDS011;778;50.120;8.698;2023-04-25T12:44:47;7.93;;;3.40;;
1569;SDS011;778;50.120;8.698;2023-04-25T12:47:15;12.73;;;4.00;;
1569;SDS011;778;50.120;8.698;2023-04-25T12:49:44;6.00;;;3.30;;
1569;SDS011;778;50.120;8.698;2023-04-25T12:52:13;7.57;;;5.70;;
1569;SDS011;778;50.120;8.698;2023-04-25T12:54:42;8.60;;;4.07;;
1569;SDS011;778;50.120;8.698;2023-04-25T12:57:10;4.40;;;3.83;;
1569;SDS011;778;50.120;8.698;2023-04-25T12:59:39;7.60;;;4.07;;
1569;SDS011;778;50.120;8.698;2023-04-25T13:02:07;5.50;;;4.03;;
1569;SDS011;778;50.120;8.698;2023-04-25T13:04:36;5.27;;;3.87;;
1569;SDS011;778;50.120;8.698;2023-04-25T13:07:04;6.30;;;3.90;;
1569;SDS011;778;50.120;8.698;2023-04-25T13:09:34;6.63;;;4.00;;
1569;SDS011;778;50.120;8.698;2023-04-25T13:12:02;7.53;;;3.37;;
1569;SDS011;778;50.120;8.698;2023-04-25T13:14:32;5.63;;;3.17;;
1569;SDS011;778;50.120;8.698;2023-04-25T13:17:00;8.90;;;3.33;;
1569;SDS011;778;50.120;8.698;2023-04-25T13:19:28;4.30;;;3.90;;
1569;SDS011;778;50.120;8.698;2023-04-25T13:21:57;5.73;;;4.23;;
1569;SDS011;778;50.120;8.698;2023-04-25T13:24:26;6.43;;;3.70;;
1569;SDS011;778;50.120;8.698;2023-04-25T13:26:56;4.47;;;3.43;;
1569;SDS011;778;50.120;8.698;2023-04-25T13:29:24;5.90;;;4.00;;
1569;SDS011;778;50.120;8.698;2023-04-25T13:31:52;5.87;;;4.33;;
1569;SDS011;778;50.120;8.698;2023-04-25T13:34:21;4.67;;;4.27;;
1569;SDS011;778;50.120;8.698;2023-04-25T13:36:50;4.97;;;4.10;;
1569;SDS011;778;50.120;8.698;2023-04-25T13:39:18;7.27;;;4.30;;
1569;SDS011;778;50.120;8.698;2023-04-25T13:41:47;5.57;;;4.33;;
1569;SDS011;778;50.120;8.698;2023-04-25T13:44:17;5.53;;;4.20;;
1569;SDS011;778;50.120;8.698;2023-04-25T13:46:45;8.57;;;4.63;;
1569;SDS011;778;50.120;8.698;2023-04-25T13:49:14;5.30;;;3.87;;
1569;SDS011;778;50.120;8.698;2023-04-25T13:51:42;4.47;;;3.20;;
1569;SDS011;778;50.120;8.698;2023-04-25T13:54:11;8.33;;;4.50;;
1569;SDS011;778;50.120;8.698;2023-04-25T13:56:40;5.57;;;4.53;;
1569;SDS011;778;50.120;8.698;2023-04-25T13:59:09;3.70;;;3.37;;
1569;SDS011;778;50.120;8.698;2023-04-25T14:01:39;7.50;;;5.30;;
1569;SDS011;778;50.120;8.698;2023-04-25T14:04:07;8.10;;;4.27;;
1569;SDS011;778;50.120;8.698;2023-04-25T14:06:36;9.63;;;5.17;;
1569;SDS011;778;50.120;8.698;2023-04-25T14:09:04;8.50;;;5.30;;
1569;SDS011;778;50.120;8.698;2023-04-25T14:11:36;6.70;;;4.70;;
1569;SDS011;778;50.120;8.698;2023-04-25T14:14:05;5.17;;;4.13;;
1569;SDS011;778;50.120;8.698;2023-04-25T14:16:33;5.93;;;3.70;;
1569;SDS011;778;50.120;8.698;2023-04-25T14:19:03;3.57;;;3.07;;
1569;SDS011;778;50.120;8.698;2023-04-25T14:21:31;7.00;;;4.63;;
1569;SDS011;778;50.120;8.698;2023-04-25T14:24:00;7.37;;;3.90;;
1569;SDS011;778;50.120;8.698;2023-04-25T14:26:28;5.07;;;3.40;;
1569;SDS011;778;50.120;8.698;2023-04-25T14:28:57;6.77;;;4.00;;
1569;SDS011;778;50.120;8.698;2023-04-25T14:31:25;4.10;;;2.77;;
1569;SDS011;778;50.120;8.698;2023-04-25T14:33:54;4.37;;;2.70;;
1569;SDS011;778;50.120;8.698;2023-04-25T14:36:26;8.23;;;3.70;;
1569;SDS011;778;50.120;8.698;2023-04-25T14:38:57;6.10;;;3.70;;
1569;SDS011;778;50.120;8.698;2023-04-25T14:41:26;3.27;;;2.80;;
1569;SDS011;778;50.120;8.698;2023-04-25T14:43:54;4.93;;;3.30;;
1569;SDS011;778;50.120;8.698;2023-04-25T14:46:23;4.60;;;2.70;;
1569;SDS011;778;50.120;8.698;2023-04-25T14:48:52;5.73;;;2.90;;
1569;SDS011;778;50.120;8.698;2023-04-25T14:51:22;3.80;;;2.70;;
1569;SDS011;778;50.120;8.698;2023-04-25T14:53:52;4.00;;;3.40;;
1569;SDS011;778;50.120;8.698;2023-04-25T14:56:20;6.83;;;2.57;;
1569;SDS011;778;50.120;8.698;2023-04-25T14:58:49;4.77;;;2.50;;
1569;SDS011;778;50.120;8.698;2023-04-25T15:01:17;5.80;;;3.30;;
1569;SDS011;778;50.120;8.698;2023-04-25T15:03:47;4.33;;;2.67;;
1569;SDS011;778;50.120;8.698;2023-04-25T15:06:16;6.07;;;2.30;;
1569;SDS011;778;50.120;8.698;2023-04-25T15:08:45;4.47;;;2.60;;
1569;SDS011;778;50.120;8.698;2023-04-25T15:11:14;7.43;;;3.07;;
1569;SDS011;778;50.120;8.698;2023-04-25T15:13:43;5.17;;;3.70;;
1569;SDS011;778;50.120;8.698;2023-04-25T15:16:11;7.67;;;3.53;;
1569;SDS011;778;50.120;8.698;2023-04-25T15:18:40;9.23;;;6.00;;
1569;SDS011;778;50.120;8.698;2023-04-25T15:21:08;6.80;;;3.70;;
1569;SDS011;778;50.120;8.698;2023-04-25T15:23:37;4.97;;;3.23;;
1569;SDS011;778;50.120;8.698;2023-04-25T15:26:05;3.10;;;2.80;;
1569;SDS011;778;50.120;8.698;2023-04-25T15:28:35;4.00;;;2.70;;
1569;SDS011;778;50.120;8.698;2023-04-25T15:31:03;8.50;;;3.10;;
1569;SDS011;778;50.120;8.698;2023-04-25T15:33:32;4.33;;;2.60;;
1569;SDS011;778;50.120;8.698;2023-04-25T15:36:00;4.50;;;3.10;;
1569;SDS011;778;50.120;8.698;2023-04-25T15:38:29;17.40;;;12.50;;
1569;SDS011;778;50.120;8.698;2023-04-25T15:40:58;10.03;;;5.77;;
1569;SDS011;778;50.120;8.698;2023-04-25T15:43:26;6.20;;;2.70;;
1569;SDS011;778;50.120;8.698;2023-04-25T15:45:56;8.40;;;6.27;;
1569;SDS011;778;50.120;8.698;2023-04-25T15:48:25;6.77;;;3.47;;
1569;SDS011;778;50.120;8.698;2023-04-25T15:50:53;5.43;;;3.73;;
1569;SDS011;778;50.120;8.698;2023-04-25T15:53:22;4.03;;;3.43;;
1569;SDS011;778;50.120;8.698;2023-04-25T15:55:50;9.30;;;3.57;;
1569;SDS011;778;50.120;8.698;2023-04-25T15:58:20;4.23;;;2.90;;
1569;SDS011;778;50.120;8.698;2023-04-25T16:00:48;4.70;;;4.07;;
1569;SDS011;778;50.120;8.698;2023-04-25T16:03:18;10.73;;;2.77;;